Wheatfield, New York
Current Conditions -  °F | °C
As of 6:53 PM on Monday 24 Nov 2014 (Local Time) from KIAG Reporting Station
Few Clouds Few Clouds  
Wind Chill: 34°   Ceiling: Unl
Heat Index: 45°   Visibility: 10mi
Dew Point: 36°   Wind: 37mph
Humidity: 71%   Direction: 250°WSW
Pressure: 29.5"   Gusts: 51mph
Location:  43.1007°N, 78.9485°W
Report Text: KIAG 242353Z 25032G44KT 10SM FEW038 07/02 A2950 RMK AO2 PK WND 25050/2334 SLP993 60011 T00720022 10178 20072 51063
Loading
Personal Weather Stations






























Interactive Weather Map New forecast layout! Learn more

10-Day Weather Forecast

Advertisements
Track Severe Weather on mobile